Time;durP1;ratioP1;P1;durP2;ratioP2;P2;SDS_P1;SDS_P2;PMS_P1;PMS_P2;Temp;Humidity;BMP_temperature;BMP_pressure;BME280_temperature;BME280_humidity;BME280_pressure;Samples;Min_cycle;Max_cycle;Signal;HPM_P1;HPM_P2
2022/09/16 00:00:14;;;;;;;7.25;2.47;;;;;;;11.23;100.00;101102.09;5032035;28;20086;-70
2022/09/16 00:02:41;;;;;;;6.60;2.55;;;;;;;11.23;100.00;101102.09;5032721;28;20391;-71
2022/09/16 00:05:07;;;;;;;8.07;2.50;;;;;;;11.20;100.00;101109.16;5032919;28;20056;-71
2022/09/16 00:07:32;;;;;;;6.57;2.63;;;;;;;11.19;100.00;101113.50;5031888;28;20081;-70
2022/09/16 00:09:58;;;;;;;7.82;3.00;;;;;;;11.16;100.00;101104.91;5032803;28;20029;-70
2022/09/16 00:12:23;;;;;;;4.68;2.40;;;;;;;11.13;100.00;101095.38;5032422;28;20025;-70
2022/09/16 00:14:51;;;;;;;7.05;2.30;;;;;;;11.14;100.00;101110.13;5031762;28;20041;-70
2022/09/16 00:17:16;;;;;;;5.63;2.30;;;;;;;11.07;100.00;101102.47;5032825;28;20030;-70
2022/09/16 00:19:41;;;;;;;5.70;2.58;;;;;;;11.12;100.00;101100.63;5032499;28;20018;-71
2022/09/16 00:22:07;;;;;;;7.95;2.50;;;;;;;11.14;100.00;101106.66;5032066;28;20025;-71
2022/09/16 00:24:32;;;;;;;4.25;2.35;;;;;;;11.13;100.00;101097.97;5032334;28;20021;-70
2022/09/16 00:26:57;;;;;;;5.70;2.58;;;;;;;11.13;100.00;101091.91;5031810;28;20374;-70
2022/09/16 00:29:22;;;;;;;6.88;2.58;;;;;;;11.11;100.00;101088.47;5032149;28;20014;-71
2022/09/16 00:31:48;;;;;;;6.60;2.75;;;;;;;11.12;100.00;101101.50;5032476;28;20469;-71
2022/09/16 00:34:13;;;;;;;7.22;2.60;;;;;;;11.12;100.00;101098.88;5031819;28;20060;-71
2022/09/16 00:36:38;;;;;;;6.53;2.70;;;;;;;11.09;100.00;101095.50;5032253;28;20370;-70
2022/09/16 00:39:04;;;;;;;7.72;3.10;;;;;;;11.07;100.00;101098.09;5032614;28;20424;-71
2022/09/16 00:41:32;;;;;;;8.27;2.72;;;;;;;11.03;100.00;101093.84;5031480;28;20058;-70
2022/09/16 00:44:06;;;;;;;7.68;2.85;;;;;;;10.94;100.00;101091.44;5032320;28;20033;-70
2022/09/16 00:46:37;;;;;;;11.25;3.15;;;;;;;10.86;100.00;101083.78;5032264;28;20040;-71
2022/09/16 00:49:24;;;;;;;8.90;2.90;;;;;;;10.74;100.00;101084.03;5031620;28;20408;-71
2022/09/16 00:51:54;;;;;;;7.57;3.00;;;;;;;10.57;100.00;101078.28;5032233;28;20405;-71
2022/09/16 00:54:20;;;;;;;5.50;2.80;;;;;;;10.54;100.00;101087.88;5032257;28;20029;-70
2022/09/16 00:56:49;;;;;;;6.25;3.00;;;;;;;10.47;100.00;101081.06;5031770;28;20029;-70
2022/09/16 00:59:20;;;;;;;5.10;2.83;;;;;;;10.48;100.00;101084.53;5032186;28;20498;-70
2022/09/16 01:01:47;;;;;;;9.90;3.13;;;;;;;10.40;100.00;101069.06;5035690;28;20438;-71
2022/09/16 01:04:17;;;;;;;9.60;3.50;;;;;;;10.34;100.00;101082.19;5035194;28;20143;-71
2022/09/16 01:06:42;;;;;;;8.98;3.60;;;;;;;10.23;100.00;101084.09;5035626;28;20036;-70
2022/09/16 01:09:08;;;;;;;7.45;3.13;;;;;;;10.12;100.00;101073.03;5034970;28;20021;-70
2022/09/16 01:11:33;;;;;;;9.27;3.47;;;;;;;10.03;100.00;101071.44;5035460;28;20087;-71
2022/09/16 01:14:52;;;;;;;11.18;3.33;;;;;;;9.95;100.00;101076.78;5035862;28;20030;-70
2022/09/16 01:17:12;;;;;;;12.90;3.47;;;;;;;9.94;100.00;101075.06;5034858;28;20036;-71
2022/09/16 01:20:30;;;;;;;6.80;3.03;;;;;;;9.87;100.00;101080.38;5035320;28;20029;-71
2022/09/16 01:23:23;;;;;;;6.55;3.58;;;;;;;9.80;100.00;101084.84;5010646;28;20108;-70
2022/09/16 01:26:19;;;;;;;9.40;3.72;;;;;;;9.78;100.00;101081.41;5035442;28;20021;-70
2022/09/16 01:29:06;;;;;;;7.72;4.10;;;;;;;9.76;100.00;101073.63;5035297;28;20048;-70
2022/09/16 01:32:13;;;;;;;8.32;3.10;;;;;;;9.73;100.00;101080.63;5034523;28;20029;-70
2022/09/16 01:34:56;;;;;;;11.15;3.60;;;;;;;9.71;100.00;101077.16;5034993;28;20036;-70
2022/09/16 01:37:36;;;;;;;8.10;3.45;;;;;;;9.67;100.00;101081.56;5034416;28;20038;-71
2022/09/16 01:40:27;;;;;;;8.00;3.38;;;;;;;9.68;100.00;101080.72;5035303;28;20030;-70
2022/09/16 01:43:13;;;;;;;6.68;3.60;;;;;;;9.67;100.00;101080.72;5035472;28;20025;-70
2022/09/16 01:45:47;;;;;;;8.02;3.90;;;;;;;9.60;100.00;101066.94;5034205;28;20033;-70
2022/09/16 01:48:19;;;;;;;7.80;4.15;;;;;;;9.59;100.00;101071.28;5035154;28;20029;-70
2022/09/16 01:50:57;;;;;;;12.55;4.30;;;;;;;9.51;100.00;101067.94;5034548;28;20107;-70
2022/09/16 01:53:33;;;;;;;9.65;3.72;;;;;;;9.51;100.00;101064.47;5034231;28;20087;-70
2022/09/16 01:56:12;;;;;;;8.10;3.72;;;;;;;9.48;100.00;101065.41;5035162;28;20079;-70
2022/09/16 01:58:47;;;;;;;13.10;4.07;;;;;;;9.46;100.00;101069.75;5034006;28;20039;-71
2022/09/16 02:01:18;;;;;;;7.45;4.03;;;;;;;9.42;100.00;101075.91;5034875;28;20147;-70
2022/09/16 02:03:48;;;;;;;8.48;4.32;;;;;;;9.39;100.00;101073.34;5034671;28;20026;-70
2022/09/16 02:06:20;;;;;;;11.10;4.10;;;;;;;9.41;100.00;101074.16;5034237;28;20053;-70
2022/09/16 02:08:52;;;;;;;9.07;4.15;;;;;;;9.45;100.00;101090.59;5034807;28;20032;-70
2022/09/16 02:11:19;;;;;;;10.27;4.72;;;;;;;9.50;100.00;101087.03;5034406;28;20079;-70
2022/09/16 02:13:53;;;;;;;10.07;4.10;;;;;;;9.59;100.00;101081.69;5033287;28;20029;-70
2022/09/16 02:16:30;;;;;;;6.78;3.85;;;;;;;9.70;100.00;101085.88;5034827;28;20198;-70
2022/09/16 02:19:01;;;;;;;9.98;3.85;;;;;;;9.76;100.00;101090.97;5034494;28;20116;-70
2022/09/16 02:21:30;;;;;;;8.32;3.20;;;;;;;9.80;100.00;101080.47;5033583;28;20100;-70
2022/09/16 02:24:00;;;;;;;13.60;4.18;;;;;;;9.88;100.00;101075.16;5034139;28;20029;-71
2022/09/16 02:26:35;;;;;;;8.63;4.07;;;;;;;9.98;100.00;101079.34;5034058;28;20025;-71
2022/09/16 02:29:04;;;;;;;9.05;3.40;;;;;;;10.04;100.00;101081.84;5034511;28;20080;-70
2022/09/16 02:31:33;;;;;;;9.25;3.10;;;;;;;10.09;100.00;101080.00;5034158;28;20029;-71
2022/09/16 02:34:10;;;;;;;10.57;3.50;;;;;;;10.13;100.00;101074.72;5033563;28;20057;-70
2022/09/16 02:36:38;;;;;;;6.57;2.95;;;;;;;10.15;100.00;101078.19;5033969;28;20036;-70
2022/09/16 02:39:08;;;;;;;7.97;2.70;;;;;;;10.18;100.00;101072.91;5034082;28;20092;-70
2022/09/16 02:41:39;;;;;;;5.80;3.10;;;;;;;10.25;100.00;101079.72;5033280;28;20040;-71
2022/09/16 02:44:05;;;;;;;8.43;2.88;;;;;;;10.29;100.00;101074.44;5034457;28;20039;-70
2022/09/16 02:46:36;;;;;;;5.72;2.70;;;;;;;10.30;100.00;101075.34;5033741;28;20045;-71
2022/09/16 02:49:20;;;;;;;9.93;2.80;;;;;;;10.32;100.00;101078.75;5033208;28;20025;-71
2022/09/16 02:52:03;;;;;;;6.72;3.05;;;;;;;10.29;100.00;101082.25;5033687;28;20413;-71
2022/09/16 02:54:28;;;;;;;6.53;2.95;;;;;;;10.20;100.00;101087.63;5033510;28;20473;-70
2022/09/16 02:56:55;;;;;;;7.93;3.17;;;;;;;10.09;100.00;101074.78;5033051;28;20044;-71
2022/09/16 02:59:21;;;;;;;5.85;2.35;;;;;;;10.11;100.00;101076.53;5033336;28;20025;-71
2022/09/16 03:01:47;;;;;;;8.45;2.78;;;;;;;10.07;100.00;101081.78;5033129;28;20053;-71
2022/09/16 03:04:15;;;;;;;7.90;2.63;;;;;;;10.01;100.00;101074.06;5033850;28;20473;-71
2022/09/16 03:06:41;;;;;;;6.72;2.88;;;;;;;9.97;100.00;101077.63;5033527;28;20060;-70
2022/09/16 03:09:09;;;;;;;7.95;2.60;;;;;;;9.92;100.00;101078.56;5032974;28;20461;-70
2022/09/16 03:11:46;;;;;;;4.95;2.53;;;;;;;9.93;100.00;101072.47;5033491;28;20025;-70
2022/09/16 03:14:36;;;;;;;15.68;3.17;;;;;;;9.96;100.00;101073.28;5033447;28;20118;-70
2022/09/16 03:17:20;;;;;;;9.80;3.55;;;;;;;9.98;100.00;101071.50;5032800;28;20044;-71
2022/09/16 03:20:16;;;;;;;6.63;2.88;;;;;;;10.01;100.00;101068.00;5033500;28;20105;-71
2022/09/16 03:23:28;;;;;;;8.27;2.90;;;;;;;10.00;100.00;101058.44;5033194;28;20132;-70
2022/09/16 03:26:19;;;;;;;6.47;2.90;;;;;;;10.06;100.00;101068.78;4986974;28;20042;-70
2022/09/16 03:28:47;;;;;;;9.77;2.55;;;;;;;10.09;100.00;101074.78;5033071;28;20397;-71
2022/09/16 03:31:19;;;;;;;7.72;2.67;;;;;;;10.06;100.00;101067.03;5032739;28;20116;-70
2022/09/16 03:34:02;;;;;;;5.38;2.85;;;;;;;10.04;100.00;101076.63;5033096;28;20025;-70
2022/09/16 03:36:33;;;;;;;10.45;3.00;;;;;;;9.92;100.00;101069.00;5032853;28;20504;-71
2022/09/16 03:39:01;;;;;;;7.13;2.60;;;;;;;9.87;100.00;101067.38;5032289;28;20051;-70
2022/09/16 03:41:30;;;;;;;11.32;2.83;;;;;;;9.83;100.00;101062.22;5033012;28;20096;-71
2022/09/16 03:43:57;;;;;;;6.25;2.63;;;;;;;9.77;100.00;101066.66;5032336;28;20056;-71
2022/09/16 03:46:24;;;;;;;6.18;2.60;;;;;;;9.67;100.00;101055.53;5032826;28;20055;-70
2022/09/16 03:48:49;;;;;;;8.23;2.90;;;;;;;9.60;100.00;101053.91;5033017;28;20048;-70
2022/09/16 03:51:14;;;;;;;9.82;3.00;;;;;;;9.54;100.00;101064.44;5032088;28;20501;-70
2022/09/16 03:53:40;;;;;;;4.93;2.78;;;;;;;9.50;100.00;101068.81;5032464;28;20086;-71
2022/09/16 03:56:05;;;;;;;5.63;2.88;;;;;;;9.48;100.00;101069.72;5032806;28;20022;-70
2022/09/16 03:58:30;;;;;;;5.35;2.65;;;;;;;9.46;100.00;101069.75;5031981;28;20026;-71
2022/09/16 04:00:56;;;;;;;7.28;2.72;;;;;;;9.45;100.00;101073.25;5032922;28;20025;-70
2022/09/16 04:03:21;;;;;;;7.18;3.00;;;;;;;9.48;100.00;101073.22;5032527;28;20040;-71
2022/09/16 04:05:55;;;;;;;8.75;4.38;;;;;;;9.53;100.00;101070.53;5032122;28;20060;-70
2022/09/16 04:08:20;;;;;;;;;;;;;;;9.56;100.00;101070.47;5033002;28;20036;-70
2022/09/16 04:10:56;;;;;;;6.57;3.13;;;;;;;9.59;100.00;101073.88;5032966;28;19913;-70
2022/09/16 04:13:23;;;;;;;5.95;3.00;;;;;;;9.60;100.00;101074.75;5031547;28;20030;-70
2022/09/16 04:15:48;;;;;;;6.97;2.67;;;;;;;9.60;100.00;101073.00;5032727;28;20033;-70
2022/09/16 04:18:14;;;;;;;10.48;2.88;;;;;;;9.63;100.00;101063.44;5032748;28;20025;-71
2022/09/16 04:20:41;;;;;;;5.55;2.83;;;;;;;9.65;100.00;101077.28;5031507;28;20416;-71
2022/09/16 04:23:06;;;;;;;7.50;2.58;;;;;;;9.66;100.00;101077.25;5032846;28;20053;-70
2022/09/16 04:25:32;;;;;;;6.55;3.33;;;;;;;9.69;100.00;101079.81;5032420;28;20436;-71
2022/09/16 04:27:57;;;;;;;4.78;2.67;;;;;;;9.74;100.00;101071.91;5031828;28;20053;-70
2022/09/16 04:30:23;;;;;;;10.38;3.10;;;;;;;9.76;100.00;101065.81;5032370;28;20053;-71
2022/09/16 04:32:55;;;;;;;6.13;2.50;;;;;;;9.81;100.00;101068.34;5032456;28;20064;-71
2022/09/16 04:35:22;;;;;;;7.03;2.70;;;;;;;9.85;100.00;101076.06;5032800;28;20435;-71
2022/09/16 04:37:48;;;;;;;5.72;2.67;;;;;;;9.89;100.00;101078.63;5036310;28;20013;-70
2022/09/16 04:40:13;;;;;;;6.22;2.80;;;;;;;9.91;100.00;101080.31;5035898;28;20068;-71
2022/09/16 04:42:38;;;;;;;6.55;3.17;;;;;;;9.98;100.00;101089.75;5036051;28;20025;-71
2022/09/16 04:45:04;;;;;;;7.38;2.90;;;;;;;10.05;100.00;101088.75;5036286;28;20037;-70
2022/09/16 04:47:30;;;;;;;8.73;2.60;;;;;;;10.06;100.00;101079.19;5035105;28;20380;-71
2022/09/16 04:49:55;;;;;;;7.95;2.50;;;;;;;10.00;100.00;101068.88;5035782;28;20128;-71
2022/09/16 04:52:20;;;;;;;9.10;2.47;;;;;;;10.06;100.00;101067.03;5036190;28;20022;-70
2022/09/16 04:54:45;;;;;;;6.57;2.33;;;;;;;10.06;100.00;101066.16;5035549;28;20469;-70
2022/09/16 04:57:12;;;;;;;8.82;2.38;;;;;;;10.05;100.00;101062.69;5036121;28;20378;-70
2022/09/16 04:59:37;;;;;;;6.30;2.35;;;;;;;10.08;100.00;101059.19;5035681;28;20528;-70
2022/09/16 05:02:02;;;;;;;5.03;1.65;;;;;;;9.99;100.00;101067.16;5035322;28;20100;-70
2022/09/16 05:04:28;;;;;;;5.10;1.92;;;;;;;9.95;100.00;101063.75;5035518;28;20156;-70
2022/09/16 05:06:53;;;;;;;4.13;1.60;;;;;;;9.89;100.00;101066.47;5036310;28;20108;-70
2022/09/16 05:09:21;;;;;;;6.57;2.00;;;;;;;9.81;100.00;101068.34;5035304;28;20436;-70
2022/09/16 05:11:46;;;;;;;6.03;1.80;;;;;;;9.78;100.00;101073.59;5036092;28;20036;-70
2022/09/16 05:14:17;;;;;;;8.55;2.00;;;;;;;9.74;100.00;101077.13;5035882;28;20029;-70
2022/09/16 05:16:43;;;;;;;6.35;2.17;;;;;;;9.69;100.00;101078.97;5035206;28;20036;-70
2022/09/16 05:19:10;;;;;;;5.25;1.63;;;;;;;9.66;100.00;101072.06;5035656;28;20029;-70
2022/09/16 05:21:37;;;;;;;7.10;1.83;;;;;;;9.63;100.00;101079.91;5035513;28;20071;-70
2022/09/16 05:24:06;;;;;;;6.93;2.05;;;;;;;9.58;100.00;101077.38;5034864;28;20151;-70
2022/09/16 05:26:34;;;;;;;6.70;2.13;;;;;;;9.64;100.00;101086.81;5035505;28;20045;-70
2022/09/16 05:29:01;;;;;;;3.72;1.90;;;;;;;9.75;100.00;101097.94;5035418;28;20461;-70
2022/09/16 05:31:29;;;;;;;5.05;2.22;;;;;;;9.85;100.00;101093.44;5034369;28;20029;-70
2022/09/16 05:34:06;;;;;;;7.32;2.10;;;;;;;9.92;100.00;101087.25;5035586;28;20025;-70
2022/09/16 05:36:34;;;;;;;9.57;2.10;;;;;;;10.01;100.00;101089.69;5034487;28;20362;-70
2022/09/16 05:39:01;;;;;;;7.57;2.22;;;;;;;10.07;100.00;101089.59;5035539;28;20029;-71
2022/09/16 05:41:26;;;;;;;5.70;1.80;;;;;;;10.13;100.00;101090.34;5034961;28;20025;-71
2022/09/16 05:43:53;;;;;;;4.88;1.60;;;;;;;10.20;100.00;101089.34;5034306;28;20496;-71
2022/09/16 05:46:21;;;;;;;7.85;1.85;;;;;;;10.25;100.00;101095.34;5034344;28;20052;-70
2022/09/16 05:48:47;;;;;;;5.25;1.90;;;;;;;10.30;100.00;101091.81;5035019;28;20059;-71
2022/09/16 05:51:15;;;;;;;4.43;1.85;;;;;;;10.37;100.00;101084.75;5034187;28;20037;-71
2022/09/16 05:53:40;;;;;;;6.18;1.90;;;;;;;10.42;100.00;101087.25;5034730;28;20437;-70
2022/09/16 05:56:27;;;;;;;5.50;2.03;;;;;;;10.51;100.00;101085.34;5035110;28;20100;-71
2022/09/16 05:58:58;;;;;;;6.35;1.70;;;;;;;10.55;100.00;101079.16;5034355;28;20037;-70
2022/09/16 06:01:30;;;;;;;4.30;1.60;;;;;;;10.61;100.00;101087.78;5034913;28;20030;-71
2022/09/16 06:03:55;;;;;;;6.70;1.38;;;;;;;10.63;100.00;101086.00;5034755;28;20508;-70
2022/09/16 06:06:28;;;;;;;2.92;1.45;;;;;;;10.65;100.00;101071.16;5033911;28;20033;-70
2022/09/16 06:08:56;;;;;;;5.30;1.83;;;;;;;10.60;100.00;101076.50;5034659;28;20111;-71
2022/09/16 06:11:23;;;;;;;9.60;1.60;;;;;;;10.66;100.00;101084.19;5034513;28;20196;-70
2022/09/16 06:13:56;;;;;;;5.47;1.70;;;;;;;10.63;100.00;101088.59;5033864;28;20496;-71
2022/09/16 06:16:22;;;;;;;4.38;1.27;;;;;;;10.72;100.00;101096.22;5034272;28;20512;-71
2022/09/16 06:18:47;;;;;;;6.90;1.70;;;;;;;10.70;100.00;101082.38;5034046;28;20466;-71
2022/09/16 06:21:13;;;;;;;4.43;1.60;;;;;;;10.80;100.00;101093.47;5034635;28;20112;-71
2022/09/16 06:23:39;;;;;;;4.72;1.20;;;;;;;10.77;100.00;101082.22;5034150;28;20036;-71
2022/09/16 06:26:12;;;;;;;4.30;1.20;;;;;;;10.86;100.00;101081.19;5033762;28;20207;-71
2022/09/16 06:28:37;;;;;;;2.95;1.10;;;;;;;10.91;100.00;101097.56;5034258;28;20035;-70
2022/09/16 06:31:05;;;;;;;3.78;0.90;;;;;;;10.90;100.00;101103.69;5034422;28;20034;-71
2022/09/16 06:33:32;;;;;;;2.78;1.02;;;;;;;10.90;100.00;101090.66;5033188;28;20021;-71
2022/09/16 06:36:02;;;;;;;3.65;1.00;;;;;;;11.04;100.00;101103.38;5034087;28;20112;-70
2022/09/16 06:38:28;;;;;;;4.05;1.20;;;;;;;11.16;100.00;101086.63;5033874;28;20619;-71
2022/09/16 06:40:57;;;;;;;4.47;1.20;;;;;;;11.25;100.00;101099.47;5033468;28;20052;-71
2022/09/16 06:43:22;;;;;;;7.20;1.35;;;;;;;11.29;100.00;101102.88;5033857;28;20022;-71
2022/09/16 06:45:47;;;;;;;5.25;1.90;;;;;;;11.33;100.00;101096.69;5034238;28;20072;-71
2022/09/16 06:48:13;;;;;;;6.93;1.63;;;;;;;11.36;100.00;101104.44;5033201;28;20143;-71
2022/09/16 06:50:38;;;;;;;8.40;1.70;;;;;;;11.30;100.00;101105.44;5033467;28;20095;-71
2022/09/16 06:53:03;;;;;;;2.30;1.40;;;;;;;11.24;100.00;101108.19;5033710;28;20369;-71
2022/09/16 06:55:28;;;;;;;6.53;1.98;;;;;;;11.22;100.00;101117.81;5032949;28;20064;-71
2022/09/16 06:57:55;;;;;;;4.25;1.50;;;;;;;11.20;100.00;101112.59;5033820;28;20503;-71
2022/09/16 07:00:21;;;;;;;5.53;1.60;;;;;;;11.15;100.00;101116.19;5033495;28;20030;-71
2022/09/16 07:02:46;;;;;;;2.95;1.55;;;;;;;11.02;100.00;101116.47;5033030;28;20033;-71
2022/09/16 07:05:12;;;;;;;4.75;1.60;;;;;;;10.91;100.00;101114.97;5033444;28;20030;-71
2022/09/16 07:07:38;;;;;;;3.88;1.58;;;;;;;10.86;100.00;101111.63;5033480;28;20026;-71
2022/09/16 07:10:04;;;;;;;4.38;1.60;;;;;;;10.95;100.00;101108.78;5033002;28;20026;-71
2022/09/16 07:12:30;;;;;;;4.72;1.60;;;;;;;10.96;100.00;101106.16;5033346;28;20032;-71
2022/09/16 07:14:55;;;;;;;4.85;1.60;;;;;;;11.04;100.00;101112.97;5032835;28;20029;-71
2022/09/16 07:17:22;;;;;;;3.83;1.73;;;;;;;11.12;100.00;101109.31;5033275;28;20358;-71
2022/09/16 07:19:48;;;;;;;7.03;1.70;;;;;;;11.15;100.00;101106.66;5033217;28;20025;-71
2022/09/16 07:22:13;;;;;;;5.80;1.42;;;;;;;11.29;100.00;101103.72;5032564;28;20091;-71
2022/09/16 07:24:38;;;;;;;7.43;1.70;;;;;;;11.53;100.00;101106.66;5033093;28;20028;-72
2022/09/16 07:27:04;;;;;;;5.78;1.50;;;;;;;11.86;100.00;101115.50;5033426;28;20029;-71
2022/09/16 07:29:29;;;;;;;3.75;1.45;;;;;;;12.21;100.00;101106.78;5032102;28;20088;-71
2022/09/16 07:31:54;;;;;;;5.05;1.40;;;;;;;12.67;100.00;101117.75;5033243;28;20023;-71
2022/09/16 07:34:20;;;;;;;4.68;1.00;;;;;;;13.03;100.00;101129.78;5033141;28;20496;-71
2022/09/16 07:36:47;;;;;;;3.50;1.10;;;;;;;13.15;100.00;101122.50;5032574;28;20466;-72
2022/09/16 07:39:15;;;;;;;5.72;1.63;;;;;;;13.02;100.00;101125.47;5033240;28;20021;-71
2022/09/16 07:41:42;;;;;;;3.20;1.20;;;;;;;12.88;100.00;101118.00;5032915;28;20026;-71
2022/09/16 07:44:11;;;;;;;4.38;1.40;;;;;;;12.65;100.00;101120.41;5032401;28;20032;-71
2022/09/16 07:46:36;;;;;;;3.95;1.70;;;;;;;12.54;100.00;101127.69;5032581;28;20473;-71
2022/09/16 07:49:05;;;;;;;4.93;1.50;;;;;;;12.70;100.00;101129.00;5032903;28;20045;-71
2022/09/16 07:51:30;;;;;;;4.57;1.63;;;;;;;12.98;100.00;101136.94;5031821;28;20045;-71
2022/09/16 07:53:59;;;;;;;4.07;1.60;;;;;;;12.97;100.00;101134.34;5032942;28;20056;-71
2022/09/16 07:56:27;;;;;;;5.00;1.50;;;;;;;12.87;100.00;101131.97;5032721;28;20017;-71
2022/09/16 07:58:53;;;;;;;3.90;1.80;;;;;;;12.67;100.00;101125.59;5032165;28;20030;-70
2022/09/16 08:01:19;;;;;;;2.85;1.55;;;;;;;12.32;100.00;101128.25;5032869;28;20044;-71
2022/09/16 08:03:46;;;;;;;4.10;1.77;;;;;;;12.00;100.00;101139.53;5032411;28;20017;-71
2022/09/16 08:06:17;;;;;;;5.00;1.70;;;;;;;11.70;100.00;101141.94;5031887;28;20557;-71
2022/09/16 08:08:43;;;;;;;2.72;2.05;;;;;;;11.59;100.00;101148.31;5032455;28;20505;-71
2022/09/16 08:11:09;;;;;;;4.82;2.05;;;;;;;11.58;100.00;101146.59;5031498;28;20026;-71
2022/09/16 08:13:36;;;;;;;4.90;2.00;;;;;;;11.60;100.00;101150.03;5032596;28;20076;-70
2022/09/16 08:16:04;;;;;;;7.95;2.75;;;;;;;11.66;100.00;101144.66;5032509;28;20018;-70
2022/09/16 08:18:31;;;;;;;6.93;2.72;;;;;;;11.77;100.00;101144.41;5031778;28;20068;-70
2022/09/16 08:20:56;;;;;;;6.45;2.40;;;;;;;11.87;100.00;101148.53;5032752;28;20104;-70
2022/09/16 08:23:22;;;;;;;6.30;2.63;;;;;;;12.08;100.00;101144.56;5032314;28;20105;-71
2022/09/16 08:25:58;;;;;;;3.75;2.45;;;;;;;12.48;100.00;101147.00;5031816;28;20053;-70
2022/09/16 08:28:23;;;;;;;6.50;2.38;;;;;;;12.99;100.00;101137.78;5032244;28;20021;-71
2022/09/16 08:30:49;;;;;;;5.10;2.45;;;;;;;13.22;100.00;101142.34;5032460;28;20099;-70
2022/09/16 08:33:14;;;;;;;5.22;2.05;;;;;;;13.09;100.00;101149.69;5031928;28;20049;-70
2022/09/16 08:35:39;;;;;;;4.57;2.00;;;;;;;12.86;100.00;101158.19;5032134;28;20040;-71
2022/09/16 08:38:05;;;;;;;4.40;2.03;;;;;;;12.73;100.00;101152.44;5032474;28;20479;-71
2022/09/16 08:40:35;;;;;;;7.35;2.20;;;;;;;13.01;100.00;101154.28;5031511;28;20034;-71
2022/09/16 08:43:23;;;;;;;4.13;1.77;;;;;;;13.06;100.00;101152.41;5032428;28;20104;-71
2022/09/16 08:45:58;;;;;;;7.95;3.13;;;;;;;13.00;100.00;101150.81;5032481;28;20033;-71
2022/09/16 08:48:34;;;;;;;3.53;1.92;;;;;;;13.03;100.00;101139.41;5031591;28;20064;-71
2022/09/16 08:51:00;;;;;;;7.40;2.00;;;;;;;13.24;100.00;101148.38;5032246;28;20045;-71
2022/09/16 08:53:46;;;;;;;5.35;1.80;;;;;;;13.48;100.00;101150.31;5031262;28;20022;-71
2022/09/16 08:56:20;;;;;;;3.08;1.52;;;;;;;13.67;100.00;101153.22;5032520;28;20034;-71
2022/09/16 08:58:47;;;;;;;;;;;;;;;14.05;100.00;101149.34;5032848;28;20026;-71
2022/09/16 09:01:24;;;;;;;8.63;1.70;;;;;;;14.44;97.62;101151.53;5031682;28;19909;-71
2022/09/16 09:03:49;;;;;;;4.93;1.58;;;;;;;14.55;91.41;101151.22;5032548;28;20140;-71
2022/09/16 09:06:44;;;;;;;3.92;1.10;;;;;;;14.57;96.04;101143.28;5032027;28;20489;-71
2022/09/16 09:09:38;;;;;;;3.22;1.02;;;;;;;14.50;94.43;101146.13;5031571;28;20041;-71
2022/09/16 09:12:07;;;;;;;4.43;1.00;;;;;;;14.68;92.31;101149.00;5032227;28;20036;-71
2022/09/16 09:14:42;;;;;;;7.65;1.52;;;;;;;14.99;91.47;101138.25;5030943;28;20072;-71
2022/09/16 09:17:29;;;;;;;4.88;1.20;;;;;;;14.97;92.21;101147.94;5032120;28;20381;-70
2022/09/16 09:20:06;;;;;;;2.95;1.23;;;;;;;14.82;90.19;101153.78;5032225;28;20122;-71
2022/09/16 09:22:53;;;;;;;7.47;1.90;;;;;;;14.67;90.93;101147.28;5032541;28;20097;-71
2022/09/16 09:25:26;;;;;;;3.28;0.68;;;;;;;14.48;91.44;101139.16;5035768;28;20030;-75
2022/09/16 09:28:16;;;;;;;3.72;0.90;;;;;;;14.39;91.69;101153.47;5035599;28;20083;-71
2022/09/16 09:31:05;;;;;;;3.00;0.90;;;;;;;14.48;89.52;101142.63;5034599;28;20029;-71
2022/09/16 09:33:49;;;;;;;4.53;1.10;;;;;;;14.95;90.79;101145.38;5035372;28;20070;-71
2022/09/16 09:36:32;;;;;;;;;;;;;;;15.30;91.70;101137.06;5035159;28;20030;-71
2022/09/16 09:39:22;;;;;;;3.80;1.40;;;;;;;15.22;85.70;101135.59;5035174;28;20280;-71
2022/09/16 09:41:47;;;;;;;4.75;1.00;;;;;;;15.21;87.80;101143.56;5035484;28;20037;-71
2022/09/16 09:44:54;;;;;;;2.30;1.03;;;;;;;15.42;87.63;101136.63;5034549;28;20025;-70
2022/09/16 09:47:35;;;;;;;4.00;1.20;;;;;;;15.34;85.86;101136.91;5026894;28;20298;-70
2022/09/16 09:50:39;;;;;;;4.05;0.98;;;;;;;15.40;86.81;101127.91;5034088;28;20076;-71
2022/09/16 09:53:10;;;;;;;3.20;0.77;;;;;;;15.76;79.69;101132.66;5035211;28;20252;-71
2022/09/16 09:55:36;;;;;;;3.75;1.08;;;;;;;15.88;74.54;101125.16;5034677;28;20036;-71
2022/09/16 09:58:16;;;;;;;2.25;1.40;;;;;;;16.06;78.39;101127.94;5034246;28;20470;-70
2022/09/16 10:00:42;;;;;;;2.78;0.85;;;;;;;16.25;72.13;101126.25;5034535;28;20152;-71
2022/09/16 10:03:17;;;;;;;1.77;0.57;;;;;;;16.44;74.95;101118.41;5035004;28;20044;-71
2022/09/16 10:05:44;;;;;;;7.72;0.90;;;;;;;16.41;74.60;101138.75;5033757;28;20384;-70
2022/09/16 10:08:19;;;;;;;2.38;0.80;;;;;;;15.49;81.27;101164.34;5034853;28;20048;-71
2022/09/16 10:10:51;;;;;;;2.05;0.80;;;;;;;14.48;91.14;101178.50;5033918;28;20505;-71
2022/09/16 10:13:18;;;;;;;3.28;0.93;;;;;;;13.59;91.80;101187.50;5034950;28;20025;-71
2022/09/16 10:15:44;;;;;;;3.80;0.80;;;;;;;12.88;96.50;101196.53;5034630;28;20067;-73
2022/09/16 10:18:23;;;;;;;3.75;0.90;;;;;;;12.18;100.00;101193.09;5033865;28;20022;-75
2022/09/16 10:20:59;;;;;;;5.88;0.93;;;;;;;11.69;100.00;101183.78;5034659;28;20025;-76
2022/09/16 10:23:25;;;;;;;6.20;0.80;;;;;;;11.43;100.00;101169.53;5034372;28;20038;-75
2022/09/16 10:26:22;;;;;;;4.93;1.02;;;;;;;11.21;100.00;101163.91;5033956;28;20033;-75
2022/09/16 10:29:01;;;;;;;1.55;0.40;;;;;;;10.86;100.00;101175.06;5034496;28;20022;-74
2022/09/16 10:31:35;;;;;;;4.65;0.57;;;;;;;10.65;100.00;101176.31;5034196;28;20104;-74
2022/09/16 10:34:04;;;;;;;3.28;0.73;;;;;;;10.62;100.00;101184.19;5033403;28;20057;-73
2022/09/16 10:36:33;;;;;;;1.52;0.63;;;;;;;10.61;100.00;101179.88;5034081;28;20036;-75
2022/09/16 10:39:03;;;;;;;4.00;0.82;;;;;;;10.68;100.00;101184.09;5033590;28;20108;-73
2022/09/16 10:41:43;;;;;;;3.92;0.60;;;;;;;10.67;100.00;101171.94;5033933;28;20142;-73
2022/09/16 10:44:21;;;;;;;3.88;0.70;;;;;;;10.73;100.00;101182.25;5034069;28;20022;-72
2022/09/16 10:47:08;;;;;;;2.00;0.50;;;;;;;10.85;100.00;101177.69;5033525;28;20040;-72
2022/09/16 10:49:38;;;;;;;2.90;1.00;;;;;;;11.14;100.00;101175.38;5033755;28;20021;-72
2022/09/16 10:52:19;;;;;;;4.13;1.00;;;;;;;11.42;100.00;101178.28;5033735;28;20060;-73
2022/09/16 10:54:45;;;;;;;2.13;0.88;;;;;;;11.56;100.00;101171.88;5033016;28;20040;-72
2022/09/16 10:57:25;;;;;;;6.25;1.15;;;;;;;11.84;100.00;101175.63;5034046;28;20026;-73
2022/09/16 10:59:57;;;;;;;3.42;0.90;;;;;;;11.89;100.00;101170.28;5033841;28;20109;-72
2022/09/16 11:02:48;;;;;;;5.03;1.38;;;;;;;12.00;100.00;101170.00;5033657;28;20079;-72
2022/09/16 11:05:24;;;;;;;4.63;1.40;;;;;;;12.22;100.00;101172.97;5033826;28;20033;-72
2022/09/16 11:07:52;;;;;;;4.18;1.30;;;;;;;12.38;100.00;101167.31;5033065;28;20052;-72
2022/09/16 11:10:32;;;;;;;3.78;1.35;;;;;;;12.51;100.00;101167.00;5033550;28;20469;-72
2022/09/16 11:13:21;;;;;;;5.45;1.75;;;;;;;12.55;100.00;101172.09;5033632;28;20025;-72
2022/09/16 11:16:07;;;;;;;5.55;1.55;;;;;;;12.69;100.00;101179.59;5033107;28;20029;-72
2022/09/16 11:18:47;;;;;;;8.63;1.80;;;;;;;12.65;100.00;101168.38;5002335;28;20025;-72
2022/09/16 11:21:12;;;;;;;4.68;0.95;;;;;;;12.67;100.00;101173.53;5032681;28;20470;-72
2022/09/16 11:23:48;;;;;;;4.13;1.13;;;;;;;12.61;100.00;101168.47;5032766;28;20021;-72
2022/09/16 11:26:36;;;;;;;4.63;1.20;;;;;;;12.49;100.00;101168.78;5033419;28;20357;-72
2022/09/16 11:29:08;;;;;;;3.67;1.30;;;;;;;12.39;100.00;101165.53;5032646;28;20045;-72
2022/09/16 11:31:39;;;;;;;5.23;1.47;;;;;;;12.54;100.00;101169.53;5033066;28;20025;-72
2022/09/16 11:34:27;;;;;;;5.80;1.98;;;;;;;12.93;100.00;101162.34;5033143;28;20022;-72
2022/09/16 11:37:19;;;;;;;5.90;1.50;;;;;;;13.47;100.00;101163.44;5032294;28;20492;-72
2022/09/16 11:39:57;;;;;;;9.38;1.88;;;;;;;14.14;100.00;101165.69;5033010;28;20037;-72